createdAt,value
2022-11-11T00:00:08.690Z,102818.78
2022-11-11T00:00:40.137Z,102825.03
2022-11-11T00:01:14.866Z,102821.81
2022-11-11T00:01:49.308Z,102830.31
2022-11-11T00:02:20.860Z,102828.56
2022-11-11T00:02:56.972Z,102823.59
2022-11-11T00:03:31.781Z,102824.22
2022-11-11T00:04:05.159Z,102826.63
2022-11-11T00:04:41.419Z,102821.97
2022-11-11T00:05:12.964Z,102818.94
2022-11-11T00:05:48.091Z,102815.72
2022-11-11T00:06:19.812Z,102813.31
2022-11-11T00:06:53.673Z,102811.09
2022-11-11T00:07:25.184Z,102808.34
2022-11-11T00:08:00.782Z,102810.28
2022-11-11T00:08:32.568Z,102811.88
2022-11-11T00:09:05.611Z,102803.22
2022-11-11T00:09:37.007Z,102811.09
2022-11-11T00:10:12.957Z,102819.75
2022-11-11T00:10:53.977Z,102809.00
2022-11-11T00:11:27.098Z,102816.22
2022-11-11T00:12:01.044Z,102809.16
2022-11-11T00:12:32.582Z,102816.69
2022-11-11T00:13:05.936Z,102803.72
2022-11-11T00:13:38.393Z,102816.38
2022-11-11T00:14:11.496Z,102809.63
2022-11-11T00:14:43.001Z,102817.81
2022-11-11T00:15:16.560Z,102818.63
2022-11-11T00:15:48.121Z,102824.88
2022-11-11T00:16:29.188Z,102832.06
2022-11-11T00:17:19.363Z,102833.84
2022-11-11T00:18:09.544Z,102837.03
2022-11-11T00:19:08.052Z,102830.00
2022-11-11T00:19:58.054Z,102836.72
2022-11-11T00:20:48.122Z,102830.94
2022-11-11T00:21:38.377Z,102836.84
2022-11-11T00:22:41.455Z,102836.84
2022-11-11T00:23:43.462Z,102837.66
2022-11-11T00:24:42.894Z,102836.84
2022-11-11T00:25:16.393Z,102839.25
2022-11-11T00:25:54.283Z,102827.56
2022-11-11T00:26:43.567Z,102824.84
2022-11-11T00:27:16.149Z,102830.28
2022-11-11T00:27:47.603Z,102841.19
2022-11-11T00:28:19.610Z,102829.47
2022-11-11T00:28:50.940Z,102831.88
2022-11-11T00:29:22.482Z,102830.28
2022-11-11T00:29:53.965Z,102837.34
2022-11-11T00:30:27.774Z,102825.97
2022-11-11T00:31:17.328Z,102824.84
2022-11-11T00:32:10.530Z,102825.63
2022-11-11T00:32:44.519Z,102829.97
2022-11-11T00:33:19.280Z,102835.41
2022-11-11T00:33:58.634Z,102824.84
2022-11-11T00:34:32.478Z,102819.38
2022-11-11T00:35:22.660Z,102831.25
2022-11-11T00:35:54.600Z,102827.06
2022-11-11T00:36:36.206Z,102829.31
2022-11-11T00:37:07.566Z,102828.19
2022-11-11T00:37:39.803Z,102825.47
2022-11-11T00:38:35.999Z,102826.28
2022-11-11T00:39:07.367Z,102826.28
2022-11-11T00:39:39.172Z,102829.00
2022-11-11T00:40:12.324Z,102830.59
2022-11-11T00:40:46.611Z,102828.19
2022-11-11T00:41:23.331Z,102822.91
2022-11-11T00:41:54.668Z,102820.19
2022-11-11T00:42:29.500Z,102818.91
2022-11-11T00:43:01.049Z,102826.75
2022-11-11T00:43:34.127Z,102825.94
2022-11-11T00:44:07.044Z,102822.75
2022-11-11T00:44:38.432Z,102826.28
2022-11-11T00:45:16.776Z,102818.75
2022-11-11T00:45:50.806Z,102818.41
2022-11-11T00:46:40.834Z,102825.16
2022-11-11T00:47:30.932Z,102816.16
2022-11-11T00:48:21.208Z,102819.06
2022-11-11T00:49:11.163Z,102822.91
2022-11-11T00:50:00.933Z,102833.81
2022-11-11T00:50:50.733Z,102828.34
2022-11-11T00:51:22.092Z,102828.34
2022-11-11T00:51:53.398Z,102830.28
2022-11-11T00:52:24.810Z,102836.53
2022-11-11T00:52:56.482Z,102829.16
2022-11-11T00:53:30.356Z,102831.09
2022-11-11T00:54:01.796Z,102833.00
2022-11-11T00:54:33.297Z,102829.16
2022-11-11T00:55:05.369Z,102831.09
2022-11-11T00:55:36.821Z,102826.75
2022-11-11T00:56:08.342Z,102824.50
2022-11-11T00:56:40.125Z,102824.34
2022-11-11T00:57:11.621Z,102827.22
2022-11-11T00:57:50.728Z,102818.41
2022-11-11T00:58:29.174Z,102825.63
2022-11-11T00:59:01.003Z,102821.78
2022-11-11T00:59:35.510Z,102825.16
2022-11-11T01:00:07.937Z,102809.13
2022-11-11T01:00:39.421Z,102823.38
2022-11-11T01:01:12.226Z,102813.59
2022-11-11T01:01:43.915Z,102813.75
2022-11-11T01:02:15.615Z,102814.41
2022-11-11T01:02:47.222Z,102809.28
2022-11-11T01:03:19.228Z,102814.88
2022-11-11T01:03:55.529Z,102808.97
2022-11-11T01:04:27.111Z,102809.75
2022-11-11T01:04:58.536Z,102809.75
2022-11-11T01:05:30.187Z,102803.19
2022-11-11T01:06:02.674Z,102812.00
2022-11-11T01:06:39.451Z,102801.75
2022-11-11T01:07:11.080Z,102801.91
2022-11-11T01:07:42.684Z,102801.91
2022-11-11T01:08:14.375Z,102802.22
2022-11-11T01:08:47.738Z,102808.47
2022-11-11T01:09:26.089Z,102802.69
2022-11-11T01:09:57.806Z,102812.97
2022-11-11T01:10:39.664Z,102802.69
2022-11-11T01:11:20.411Z,102806.22
2022-11-11T01:11:51.806Z,102806.22
2022-11-11T01:12:23.426Z,102811.34
2022-11-11T01:13:12.361Z,102807.69
2022-11-11T01:13:47.255Z,102820.34
2022-11-11T01:14:21.330Z,102810.22
2022-11-11T01:14:53.817Z,102813.59
2022-11-11T01:15:26.698Z,102812.97
2022-11-11T01:16:04.793Z,102814.56
2022-11-11T01:16:36.274Z,102814.56
2022-11-11T01:17:16.793Z,102802.69
2022-11-11T01:17:51.155Z,102804.78
2022-11-11T01:18:25.760Z,102804.78
2022-11-11T01:18:57.617Z,102809.13
2022-11-11T01:19:29.682Z,102809.44
2022-11-11T01:20:01.402Z,102803.66
2022-11-11T01:20:37.556Z,102800.47
2022-11-11T01:21:13.858Z,102810.34
2022-11-11T01:21:45.843Z,102806.72
2022-11-11T01:22:17.343Z,102815.00
2022-11-11T01:22:48.943Z,102811.34
2022-11-11T01:23:20.516Z,102816.97
2022-11-11T01:24:13.235Z,102817.75
2022-11-11T01:24:46.382Z,102806.84
2022-11-11T01:25:17.834Z,102808.44
2022-11-11T01:25:49.538Z,102806.19
2022-11-11T01:26:30.980Z,102807.31
2022-11-11T01:27:03.411Z,102806.84
2022-11-11T01:27:34.950Z,102803.66
2022-11-11T01:28:07.627Z,102808.13
2022-11-11T01:28:39.136Z,102796.28
2022-11-11T01:29:14.219Z,102803.94
2022-11-11T01:29:46.441Z,102808.13
2022-11-11T01:30:20.565Z,102797.88
2022-11-11T01:30:52.176Z,102798.66
2022-11-11T01:31:25.542Z,102799.81
2022-11-11T01:31:59.608Z,102790.47
2022-11-11T01:32:36.601Z,102798.34
2022-11-11T01:33:09.954Z,102797.09
2022-11-11T01:33:43.591Z,102799.13
2022-11-11T01:34:14.954Z,102792.88
2022-11-11T01:34:46.410Z,102796.88
2022-11-11T01:35:17.999Z,102795.59
2022-11-11T01:35:49.652Z,102800.75
2022-11-11T01:36:26.902Z,102789.72
2022-11-11T01:36:58.455Z,102786.19
2022-11-11T01:37:32.506Z,102798.66
2022-11-11T01:38:11.208Z,102801.38
2022-11-11T01:38:50.425Z,102797.09
2022-11-11T01:39:24.966Z,102801.38
2022-11-11T01:39:56.515Z,102793.56
2022-11-11T01:40:30.477Z,102790.34
2022-11-11T01:41:25.140Z,102795.47
2022-11-11T01:42:02.215Z,102787.97
2022-11-11T01:43:13.510Z,102793.88
2022-11-11T01:43:47.502Z,102789.88
2022-11-11T01:44:43.635Z,102796.13
2022-11-11T01:45:44.843Z,102806.06
2022-11-11T01:46:29.223Z,102806.38
2022-11-11T01:47:04.286Z,102818.09
2022-11-11T01:48:33.848Z,102809.91
2022-11-11T01:49:25.771Z,102818.88
2022-11-11T01:50:01.003Z,102813.44
2022-11-11T01:50:32.605Z,102816.16
2022-11-11T01:51:12.364Z,102825.16
2022-11-11T01:51:55.166Z,102836.81
2022-11-11T01:52:30.844Z,102834.09
2022-11-11T01:53:02.174Z,102828.63
2022-11-11T01:53:34.142Z,102831.38
2022-11-11T01:54:10.247Z,102838.41
2022-11-11T01:55:07.831Z,102826.72
2022-11-11T01:55:44.672Z,102827.06
2022-11-11T01:56:16.794Z,102828.50
2022-11-11T01:56:51.769Z,102819.22
2022-11-11T01:57:38.934Z,102825.47
2022-11-11T01:58:18.374Z,102824.97
2022-11-11T01:58:54.222Z,102829.00
2022-11-11T01:59:31.996Z,102826.28
2022-11-11T02:00:10.848Z,102825.78
2022-11-11T02:00:42.653Z,102830.91
2022-11-11T02:01:18.198Z,102823.06
2022-11-11T02:01:53.182Z,102830.59
2022-11-11T02:02:44.438Z,102822.75
2022-11-11T02:03:18.748Z,102824.66
2022-11-11T02:04:12.005Z,102829.13
2022-11-11T02:05:10.597Z,102830.25
2022-11-11T02:05:42.208Z,102826.41
2022-11-11T02:06:14.109Z,102823.19
2022-11-11T02:06:46.899Z,102828.63
2022-11-11T02:07:19.396Z,102816.97
2022-11-11T02:07:51.147Z,102822.41
2022-11-11T02:08:33.169Z,102822.06
2022-11-11T02:09:06.156Z,102828.31
2022-11-11T02:09:42.270Z,102825.59
2022-11-11T02:10:13.682Z,102817.75
2022-11-11T02:10:46.712Z,102820.94
2022-11-11T02:11:41.240Z,102818.88
2022-11-11T02:12:30.977Z,102821.25
2022-11-11T02:13:21.223Z,102820.47
2022-11-11T02:14:11.299Z,102818.88
2022-11-11T02:14:46.999Z,102820.47
2022-11-11T02:15:18.467Z,102822.75
2022-11-11T02:15:50.001Z,102818.09
2022-11-11T02:16:21.395Z,102816.97
2022-11-11T02:16:52.841Z,102820.81
2022-11-11T02:17:25.689Z,102825.16
2022-11-11T02:17:57.136Z,102821.63
2022-11-11T02:18:30.986Z,102813.75
2022-11-11T02:19:07.483Z,102819.22
2022-11-11T02:19:46.968Z,102812.16
2022-11-11T02:20:25.877Z,102806.72
2022-11-11T02:21:00.482Z,102821.75
2022-11-11T02:21:41.979Z,102809.91
2022-11-11T02:22:19.467Z,102812.28
2022-11-11T02:23:12.875Z,102816.28
2022-11-11T02:24:09.287Z,102821.75
2022-11-11T02:24:42.724Z,102811.50
2022-11-11T02:25:18.756Z,102815.50
2022-11-11T02:25:52.243Z,102816.28
2022-11-11T02:26:27.172Z,102822.06
2022-11-11T02:27:00.242Z,102818.22
2022-11-11T02:27:32.162Z,102814.69
2022-11-11T02:28:06.711Z,102817.41
2022-11-11T02:28:39.328Z,102808.44
2022-11-11T02:29:14.917Z,102812.75
2022-11-11T02:29:49.364Z,102815.50
2022-11-11T02:30:39.519Z,102816.28
2022-11-11T02:31:11.094Z,102816.28
2022-11-11T02:31:42.801Z,102811.97
2022-11-11T02:32:14.258Z,102815.50
2022-11-11T02:32:51.258Z,102818.22
2022-11-11T02:33:22.903Z,102825.28
2022-11-11T02:33:54.951Z,102819.00
2022-11-11T02:34:33.182Z,102822.53
2022-11-11T02:35:13.336Z,102811.63
2022-11-11T02:35:48.418Z,102821.75
2022-11-11T02:36:19.878Z,102820.94
2022-11-11T02:36:51.602Z,102804.59
2022-11-11T02:37:26.805Z,102819.81
2022-11-11T02:37:58.491Z,102810.84
2022-11-11T02:38:30.746Z,102811.16
2022-11-11T02:39:02.323Z,102823.66
2022-11-11T02:40:02.531Z,102811.50
2022-11-11T02:41:04.491Z,102811.97
2022-11-11T02:41:54.304Z,102803.78
2022-11-11T02:42:25.871Z,102809.13
2022-11-11T02:42:57.350Z,102812.28
2022-11-11T02:43:32.845Z,102811.50
2022-11-11T02:44:06.507Z,102802.06
2022-11-11T02:44:38.227Z,102805.25
2022-11-11T02:45:10.185Z,102817.41
2022-11-11T02:45:41.751Z,102811.50
2022-11-11T02:46:13.287Z,102802.84
2022-11-11T02:46:49.108Z,102812.28
2022-11-11T02:47:20.700Z,102808.00
2022-11-11T02:47:55.965Z,102807.03
2022-11-11T02:48:28.250Z,102814.09
2022-11-11T02:48:59.697Z,102805.09
2022-11-11T02:49:36.449Z,102816.50
2022-11-11T02:50:58.230Z,102820.00
2022-11-11T02:51:29.680Z,102815.69
2022-11-11T02:52:01.042Z,102812.16
2022-11-11T02:52:33.290Z,102817.63
2022-11-11T02:53:04.801Z,102812.97
2022-11-11T02:53:36.333Z,102815.69
2022-11-11T02:54:07.895Z,102818.41
2022-11-11T02:54:39.695Z,102816.81
2022-11-11T02:55:11.802Z,102814.56
2022-11-11T02:55:43.216Z,102822.41
2022-11-11T02:56:34.668Z,102818.41
2022-11-11T02:57:09.088Z,102812.63
2022-11-11T02:57:40.845Z,102819.69
2022-11-11T02:58:13.749Z,102814.56
2022-11-11T02:58:45.243Z,102818.09
2022-11-11T02:59:16.723Z,102816.50
2022-11-11T02:59:48.142Z,102816.50
2022-11-11T03:00:25.363Z,102820.00
2022-11-11T03:00:57.091Z,102813.94
2022-11-11T03:01:30.828Z,102816.00
2022-11-11T03:02:02.678Z,102805.91
2022-11-11T03:02:36.636Z,102813.59
2022-11-11T03:03:09.260Z,102821.63
2022-11-11T03:03:41.019Z,102810.56
2022-11-11T03:04:12.622Z,102818.41
2022-11-11T03:04:48.954Z,102810.88
2022-11-11T03:05:27.718Z,102809.75
2022-11-11T03:06:02.661Z,102813.59
2022-11-11T03:06:34.593Z,102808.97
2022-11-11T03:07:06.791Z,102811.69
2022-11-11T03:07:38.532Z,102813.59
2022-11-11T03:08:13.194Z,102823.88
2022-11-11T03:08:51.206Z,102815.22
2022-11-11T03:09:22.812Z,102807.69
2022-11-11T03:09:56.903Z,102817.63
2022-11-11T03:10:28.922Z,102815.53
2022-11-11T03:11:00.612Z,102815.84
2022-11-11T03:11:32.057Z,102832.34
2022-11-11T03:12:03.781Z,102813.59
2022-11-11T03:12:35.524Z,102820.50
2022-11-11T03:13:07.760Z,102829.63
2022-11-11T03:13:42.346Z,102827.22
2022-11-11T03:14:13.954Z,102823.22
2022-11-11T03:14:45.548Z,102820.19
2022-11-11T03:15:17.226Z,102821.78
2022-11-11T03:15:52.910Z,102826.09
2022-11-11T03:16:44.087Z,102831.88
2022-11-11T03:17:34.329Z,102837.81
2022-11-11T03:18:05.794Z,102833.16
2022-11-11T03:18:37.206Z,102833.16
2022-11-11T03:19:09.039Z,102832.03
2022-11-11T03:19:40.521Z,102827.38
2022-11-11T03:20:32.054Z,102833.63
2022-11-11T03:22:25.510Z,102830.13
2022-11-11T03:23:10.252Z,102834.75
2022-11-11T03:23:41.563Z,102836.38
2022-11-11T03:24:12.910Z,102835.56
2022-11-11T03:25:02.831Z,102830.75
2022-11-11T03:25:40.806Z,102830.91
2022-11-11T03:26:12.362Z,102837.50
2022-11-11T03:26:43.784Z,102837.16
2022-11-11T03:27:16.805Z,102850.00
2022-11-11T03:27:48.196Z,102835.56
2022-11-11T03:28:21.422Z,102846.16
2022-11-11T03:28:54.602Z,102840.69
2022-11-11T03:29:26.148Z,102836.38
2022-11-11T03:29:57.841Z,102843.59
2022-11-11T03:30:31.902Z,102853.53
2022-11-11T03:31:04.925Z,102834.28
2022-11-11T03:31:38.718Z,102843.25
2022-11-11T03:32:10.310Z,102851.13
2022-11-11T03:32:43.275Z,102845.19
2022-11-11T03:33:18.968Z,102848.72
2022-11-11T03:33:50.406Z,102845.81
2022-11-11T03:34:21.966Z,102851.75
2022-11-11T03:34:56.339Z,102855.28
2022-11-11T03:35:31.439Z,102851.75
2022-11-11T03:36:05.351Z,102839.56
2022-11-11T03:36:55.334Z,102854.97
2022-11-11T03:37:45.455Z,102853.38
2022-11-11T03:38:23.524Z,102859.94
2022-11-11T03:38:54.911Z,102855.28
2022-11-11T03:39:26.434Z,102848.22
2022-11-11T03:39:57.785Z,102852.25
2022-11-11T03:40:29.194Z,102850.16
2022-11-11T03:41:01.131Z,102845.81
2022-11-11T03:41:32.603Z,102844.72
2022-11-11T03:42:06.245Z,102851.75
2022-11-11T03:42:37.654Z,102850.16
2022-11-11T03:43:09.510Z,102850.97
2022-11-11T03:43:43.360Z,102854.16
2022-11-11T03:44:14.809Z,102852.56
2022-11-11T03:44:46.233Z,102849.03
2022-11-11T03:45:17.636Z,102852.25
2022-11-11T03:46:07.959Z,102855.75
2022-11-11T03:46:39.328Z,102848.56
2022-11-11T03:47:10.767Z,102858.00
2022-11-11T03:47:42.295Z,102845.34
2022-11-11T03:48:14.400Z,102846.94
2022-11-11T03:48:45.861Z,102854.47
2022-11-11T03:49:17.289Z,102855.75
2022-11-11T03:49:48.809Z,102859.63
2022-11-11T03:50:23.652Z,102852.88
2022-11-11T03:50:55.325Z,102855.75
2022-11-11T03:51:28.645Z,102853.03
2022-11-11T03:52:02.443Z,102852.88
2022-11-11T03:52:35.243Z,102869.88
2022-11-11T03:53:09.322Z,102856.41
2022-11-11T03:53:41.080Z,102861.22
2022-11-11T03:54:13.110Z,102851.28
2022-11-11T03:54:44.798Z,102865.88
2022-11-11T03:55:20.709Z,102862.97
2022-11-11T03:55:52.447Z,102867.94
2022-11-11T03:56:26.197Z,102865.88
2022-11-11T03:57:17.518Z,102869.72
2022-11-11T03:57:50.364Z,102864.91
2022-11-11T03:58:21.831Z,102859.44
2022-11-11T03:59:00.338Z,102863.78
2022-11-11T03:59:31.816Z,102864.25
2022-11-11T04:00:08.920Z,102860.75
2022-11-11T04:00:47.363Z,102862.34
2022-11-11T04:01:37.561Z,102866.66
2022-11-11T04:02:31.459Z,102863.63
2022-11-11T04:03:39.734Z,102868.59
2022-11-11T04:04:29.311Z,102870.84
2022-11-11T04:05:19.023Z,102867.31
2022-11-11T04:06:09.219Z,102862.97
2022-11-11T04:06:58.940Z,102869.22
2022-11-11T04:07:48.941Z,102877.41
2022-11-11T04:08:40.500Z,102869.22
2022-11-11T04:09:30.765Z,102872.75
2022-11-11T04:10:20.821Z,102877.41
2022-11-11T04:10:52.770Z,102870.84
2022-11-11T04:11:33.369Z,102872.75
2022-11-11T04:12:04.867Z,102871.16
2022-11-11T04:12:56.607Z,102869.56
2022-11-11T04:13:46.934Z,102868.75
2022-11-11T04:14:37.051Z,102869.56
2022-11-11T04:15:27.572Z,102871.00
2022-11-11T04:16:07.632Z,102865.53
2022-11-11T04:16:38.945Z,102869.88
2022-11-11T04:17:10.391Z,102863.63
2022-11-11T04:17:41.763Z,102863.94
2022-11-11T04:18:13.183Z,102862.34
2022-11-11T04:19:03.018Z,102868.75
2022-11-11T04:19:53.001Z,102866.34
2022-11-11T04:20:42.927Z,102863.63
2022-11-11T04:21:32.633Z,102859.28
2022-11-11T04:22:04.171Z,102869.38
2022-11-11T04:22:41.542Z,102860.75
2022-11-11T04:23:12.875Z,102862.66
2022-11-11T04:23:44.192Z,102865.38
2022-11-11T04:24:38.783Z,102868.91
2022-11-11T04:25:28.672Z,102857.53
2022-11-11T04:26:02.879Z,102859.13
2022-11-11T04:26:34.184Z,102857.22
2022-11-11T04:27:13.155Z,102860.75
2022-11-11T04:27:44.463Z,102850.97
2022-11-11T04:28:34.543Z,102852.09
2022-11-11T04:29:24.407Z,102855.28
2022-11-11T04:29:55.705Z,102850.63
2022-11-11T04:30:27.002Z,102850.63
2022-11-11T04:30:58.350Z,102854.47
2022-11-11T04:31:29.655Z,102856.09
2022-11-11T04:32:27.896Z,102859.94
2022-11-11T04:32:59.201Z,102853.69
2022-11-11T04:33:30.531Z,102853.69
2022-11-11T04:34:01.885Z,102859.13
2022-11-11T04:34:33.211Z,102850.16
2022-11-11T04:35:12.415Z,102852.88
2022-11-11T04:35:49.380Z,102855.94
2022-11-11T04:36:20.891Z,102846.16
2022-11-11T04:36:52.202Z,102855.59
2022-11-11T04:37:25.229Z,102852.09
2022-11-11T04:38:16.538Z,102852.09
2022-11-11T04:39:06.476Z,102850.81
2022-11-11T04:39:56.219Z,102848.56
2022-11-11T04:40:46.039Z,102857.03
2022-11-11T04:41:17.318Z,102846.16
2022-11-11T04:42:07.088Z,102855.44
2022-11-11T04:42:39.785Z,102846.50
2022-11-11T04:43:11.067Z,102852.72
2022-11-11T04:44:00.933Z,102846.81
2022-11-11T04:44:50.933Z,102844.09
2022-11-11T04:45:27.924Z,102847.28
2022-11-11T04:45:59.892Z,102850.00
2022-11-11T04:46:31.198Z,102840.25
2022-11-11T04:47:02.526Z,102840.25
2022-11-11T04:47:33.931Z,102835.13
2022-11-11T04:48:10.372Z,102841.38
2022-11-11T04:48:41.711Z,102835.91
2022-11-11T04:49:13.047Z,102833.53
2022-11-11T04:49:44.551Z,102834.31
2022-11-11T04:50:24.236Z,102831.13
2022-11-11T04:50:55.695Z,102823.75
2022-11-11T04:51:47.122Z,102822.13
2022-11-11T04:52:27.642Z,102812.69
2022-11-11T04:52:59.851Z,102828.72
2022-11-11T04:53:31.166Z,102828.72
2022-11-11T04:54:02.611Z,102822.47
2022-11-11T04:54:54.028Z,102830.47
2022-11-11T04:55:44.408Z,102822.94
2022-11-11T04:56:34.575Z,102829.34
2022-11-11T04:57:05.914Z,102827.28
2022-11-11T04:57:42.463Z,102823.91
2022-11-11T04:58:14.602Z,102833.19
2022-11-11T04:58:46.941Z,102835.91
2022-11-11T04:59:18.367Z,102824.22
2022-11-11T04:59:49.661Z,102827.44
2022-11-11T05:00:21.074Z,102830.47
2022-11-11T05:00:52.734Z,102834.00
2022-11-11T05:01:46.291Z,102828.88
2022-11-11T05:02:36.306Z,102832.06
2022-11-11T05:03:16.396Z,102824.22
2022-11-11T05:03:47.704Z,102831.28
2022-11-11T05:04:19.042Z,102828.88
2022-11-11T05:04:50.379Z,102824.22
2022-11-11T05:05:23.230Z,102831.28
2022-11-11T05:06:18.132Z,102825.81
2022-11-11T05:07:08.276Z,102831.59
2022-11-11T05:07:58.424Z,102828.88
2022-11-11T05:08:48.717Z,102820.69
2022-11-11T05:09:20.081Z,102820.69
2022-11-11T05:09:51.427Z,102820.38
2022-11-11T05:10:22.950Z,102821.50
2022-11-11T05:10:54.340Z,102816.84
2022-11-11T05:11:30.695Z,102816.84
2022-11-11T05:12:02.360Z,102806.91
2022-11-11T05:12:33.863Z,102805.78
2022-11-11T05:13:24.323Z,102816.38
2022-11-11T05:14:29.987Z,102813.31
2022-11-11T05:15:19.834Z,102817.16
2022-11-11T05:16:09.463Z,102817.50
2022-11-11T05:17:04.749Z,102813.16
2022-11-11T05:17:54.603Z,102818.94
2022-11-11T05:18:44.096Z,102812.69
2022-11-11T05:19:34.752Z,102818.94
2022-11-11T05:20:25.135Z,102814.59
2022-11-11T05:21:15.174Z,102817.34
2022-11-11T05:21:46.667Z,102813.81
2022-11-11T05:22:34.253Z,102817.66
2022-11-11T05:23:05.574Z,102809.84
2022-11-11T05:23:55.327Z,102813.34
2022-11-11T05:24:45.248Z,102815.28
2022-11-11T05:25:25.586Z,102813.69
2022-11-11T05:25:56.885Z,102809.66
2022-11-11T05:26:32.007Z,102809.66
2022-11-11T05:27:03.693Z,102812.38
2022-11-11T05:27:35.046Z,102810.00
2022-11-11T05:28:06.398Z,102808.88
2022-11-11T05:28:40.003Z,102802.63
2022-11-11T05:29:11.595Z,102802.78
2022-11-11T05:29:43.407Z,102801.00
2022-11-11T05:30:16.601Z,102800.06
2022-11-11T05:30:51.122Z,102806.94
2022-11-11T05:31:25.318Z,102802.78
2022-11-11T05:31:57.033Z,102814.31
2022-11-11T05:32:28.827Z,102808.72
2022-11-11T05:33:00.199Z,102805.19
2022-11-11T05:33:31.655Z,102808.22
2022-11-11T05:34:06.057Z,102809.81
2022-11-11T05:34:37.704Z,102811.59
2022-11-11T05:35:12.228Z,102816.06
2022-11-11T05:35:43.717Z,102818.00
2022-11-11T05:36:15.084Z,102814.78
2022-11-11T05:36:46.718Z,102818.00
2022-11-11T05:37:24.369Z,102823.44
2022-11-11T05:38:20.287Z,102812.22
2022-11-11T05:38:54.013Z,102825.53
2022-11-11T05:39:30.204Z,102812.88
2022-11-11T05:40:04.314Z,102821.03
2022-11-11T05:40:38.007Z,102823.13
2022-11-11T05:41:09.733Z,102812.72
2022-11-11T05:41:41.236Z,102819.75
2022-11-11T05:42:18.496Z,102814.00
2022-11-11T05:42:54.535Z,102819.91
2022-11-11T05:43:28.584Z,102817.19
2022-11-11T05:44:00.031Z,102817.03
2022-11-11T05:44:31.725Z,102811.59
2022-11-11T05:45:06.003Z,102815.09
2022-11-11T05:45:37.597Z,102813.50
2022-11-11T05:46:09.109Z,102809.81
2022-11-11T05:46:40.901Z,102813.66
2022-11-11T05:47:12.343Z,102806.28
2022-11-11T05:47:48.725Z,102805.19
2022-11-11T05:48:23.798Z,102813.34
2022-11-11T05:49:14.078Z,102807.75
2022-11-11T05:49:45.712Z,102817.66
2022-11-11T05:50:17.195Z,102819.59
2022-11-11T05:50:48.491Z,102816.88
2022-11-11T05:51:28.173Z,102823.44
2022-11-11T05:52:21.318Z,102828.06
2022-11-11T05:52:52.612Z,102816.38
2022-11-11T05:53:24.694Z,102821.69
2022-11-11T05:53:57.972Z,102817.69
2022-11-11T05:54:32.847Z,102820.56
2022-11-11T05:55:04.644Z,102826.81
2022-11-11T05:55:36.143Z,102826.34
2022-11-11T05:56:07.634Z,102830.34
2022-11-11T05:56:39.815Z,102829.88
2022-11-11T05:57:11.482Z,102822.34
2022-11-11T05:57:43.212Z,102827.47
2022-11-11T05:58:16.898Z,102827.47
2022-11-11T05:58:50.759Z,102830.66
2022-11-11T05:59:25.209Z,102828.56
2022-11-11T05:59:58.877Z,102833.06
2022-11-11T06:00:32.226Z,102831.31
2022-11-11T06:01:05.433Z,102838.84
2022-11-11T06:01:37.716Z,102830.81
2022-11-11T06:02:11.865Z,102837.53
2022-11-11T06:02:43.265Z,102837.53
2022-11-11T06:03:14.793Z,102836.75
2022-11-11T06:03:46.615Z,102829.22
2022-11-11T06:04:20.608Z,102838.66
2022-11-11T06:04:55.427Z,102830.34
2022-11-11T06:05:28.103Z,102834.34
2022-11-11T06:05:59.633Z,102829.22
2022-11-11T06:06:34.289Z,102829.53
2022-11-11T06:07:05.963Z,102833.84
2022-11-11T06:07:39.605Z,102844.91
2022-11-11T06:08:11.258Z,102836.91
2022-11-11T06:08:44.701Z,102842.19
2022-11-11T06:09:16.636Z,102843.63
2022-11-11T06:09:50.382Z,102842.03
2022-11-11T06:10:30.932Z,102834.16
2022-11-11T06:11:02.462Z,102836.59
2022-11-11T06:11:33.991Z,102839.31
2022-11-11T06:12:06.815Z,102834.16
2022-11-11T06:13:02.152Z,102853.09
2022-11-11T06:13:33.883Z,102844.44
2022-11-11T06:14:06.169Z,102849.88
2022-11-11T06:14:39.964Z,102841.22
2022-11-11T06:15:13.165Z,102848.09
2022-11-11T06:15:44.494Z,102844.91
2022-11-11T06:16:15.968Z,102851.13
2022-11-11T06:16:47.467Z,102848.91
2022-11-11T06:17:21.387Z,102841.38
2022-11-11T06:17:56.430Z,102853.38
2022-11-11T06:18:31.237Z,102863.63
2022-11-11T06:19:07.235Z,102853.56
2022-11-11T06:19:57.322Z,102847.94
2022-11-11T06:20:31.783Z,102853.88
2022-11-11T06:21:03.331Z,102850.19
2022-11-11T06:21:54.898Z,102854.97
2022-11-11T06:22:46.215Z,102856.72
2022-11-11T06:23:17.683Z,102851.28
2022-11-11T06:23:49.269Z,102858.34
2022-11-11T06:24:25.987Z,102858.19
2022-11-11T06:25:17.813Z,102858.03
2022-11-11T06:26:08.532Z,102859.00
2022-11-11T06:26:39.932Z,102862.34
2022-11-11T06:27:11.401Z,102865.38
2022-11-11T06:27:42.908Z,102861.53
2022-11-11T06:28:15.582Z,102852.44
2022-11-11T06:28:49.328Z,102869.72
2022-11-11T06:29:20.701Z,102870.50
2022-11-11T06:29:52.188Z,102868.59
2022-11-11T06:30:48.254Z,102860.59
2022-11-11T06:31:20.150Z,102874.84
2022-11-11T06:31:53.416Z,102872.75
2022-11-11T06:32:25.031Z,102869.56
2022-11-11T06:33:02.833Z,102866.38
2022-11-11T06:33:37.465Z,102868.78
2022-11-11T06:34:08.853Z,102879.81
2022-11-11T06:34:40.225Z,102889.88
2022-11-11T06:35:11.549Z,102888.78
2022-11-11T06:35:44.697Z,102895.00
2022-11-11T06:36:18.534Z,102895.34
2022-11-11T06:36:50.076Z,102885.09
2022-11-11T06:37:21.441Z,102897.75
2022-11-11T06:37:53.082Z,102896.94
2022-11-11T06:38:24.610Z,102889.25
2022-11-11T06:38:56.128Z,102903.66
2022-11-11T06:39:27.548Z,102893.09
2022-11-11T06:39:58.876Z,102898.53
2022-11-11T06:40:30.947Z,102907.19
2022-11-11T06:41:02.328Z,102904.47
2022-11-11T06:41:33.681Z,102904.00
2022-11-11T06:42:05.007Z,102908.63
2022-11-11T06:42:37.977Z,102905.09
2022-11-11T06:43:09.768Z,102902.38
2022-11-11T06:43:42.540Z,102900.78
2022-11-11T06:44:13.833Z,102900.63
2022-11-11T06:44:45.140Z,102908.16
2022-11-11T06:45:16.842Z,102916.00
2022-11-11T06:45:52.546Z,102913.28
2022-11-11T06:46:25.803Z,102907.81
2022-11-11T06:46:57.113Z,102906.22
2022-11-11T06:47:28.573Z,102906.09
2022-11-11T06:48:00.040Z,102912.97
2022-11-11T06:48:31.373Z,102905.91
2022-11-11T06:49:02.826Z,102902.69
2022-11-11T06:49:34.255Z,102912.97
2022-11-11T06:50:06.229Z,102913.28
2022-11-11T06:50:37.717Z,102910.06
2022-11-11T06:51:11.188Z,102921.13
2022-11-11T06:51:42.537Z,102919.53
2022-11-11T06:52:14.372Z,102919.53
2022-11-11T06:52:45.858Z,102920.31
2022-11-11T06:53:19.490Z,102915.19
2022-11-11T06:53:51.020Z,102913.59
2022-11-11T06:54:23.585Z,102911.66
2022-11-11T06:54:54.900Z,102913.28
2022-11-11T06:55:26.214Z,102918.41
2022-11-11T06:55:58.217Z,102925.44
2022-11-11T06:56:29.556Z,102918.72
2022-11-11T06:57:05.825Z,102918.09
2022-11-11T06:57:39.951Z,102924.34
2022-11-11T06:58:14.456Z,102921.13
2022-11-11T06:58:45.876Z,102925.28